Time;durP1;ratioP1;P1;durP2;ratioP2;P2;SDS_P1;SDS_P2;PMS_P1;PMS_P2;Temp;Humidity;BMP_temperature;BMP_pressure;BME280_temperature;BME280_humidity;BME280_pressure;Samples;Min_cycle;Max_cycle;Signal;HPM_P1;HPM_P2
2021/12/26 00:01:01;;;;;;;3.83;1.35;;;;;;;-10.59;73.02;97799.25;4899780;29;20052;-62
2021/12/26 00:03:30;;;;;;;3.67;1.80;;;;;;;-10.57;72.63;97799.00;4898360;29;20049;-61
2021/12/26 00:06:05;;;;;;;2.22;1.45;;;;;;;-10.58;73.05;97792.81;4897598;29;20071;-62
2021/12/26 00:08:34;;;;;;;3.03;1.90;;;;;;;-10.58;73.18;97791.97;4899060;29;20512;-61
2021/12/26 00:11:03;;;;;;;2.45;1.40;;;;;;;-10.58;72.47;97795.50;4899518;29;20098;-62
2021/12/26 00:13:31;;;;;;;4.03;2.15;;;;;;;-10.58;72.26;97787.44;4899952;29;20151;-61
2021/12/26 00:15:59;;;;;;;2.97;1.80;;;;;;;-10.56;72.55;97788.00;4899338;29;20495;-62
2021/12/26 00:18:27;;;;;;;3.75;2.03;;;;;;;-10.54;72.60;97801.19;4899858;29;20568;-62
2021/12/26 00:20:54;;;;;;;1.70;1.02;;;;;;;-10.54;73.67;97798.50;4899434;29;20104;-63
2021/12/26 00:23:21;;;;;;;10.23;1.90;;;;;;;-10.52;73.32;97786.47;4899286;29;20087;-67
2021/12/26 00:25:49;;;;;;;3.58;1.70;;;;;;;-10.50;73.43;97795.09;4899135;29;20111;-67
2021/12/26 00:28:16;;;;;;;5.32;1.55;;;;;;;-10.47;73.48;97794.63;4899077;29;20044;-67
2021/12/26 00:30:44;;;;;;;2.28;1.42;;;;;;;-10.41;72.89;97782.06;4897694;29;20060;-67
2021/12/26 00:33:12;;;;;;;4.32;2.30;;;;;;;-10.29;72.91;97785.50;4895548;29;20052;-67
2021/12/26 00:35:39;;;;;;;3.42;1.83;;;;;;;-10.19;72.93;97794.56;4897919;29;20045;-67
2021/12/26 00:38:07;;;;;;;4.65;1.83;;;;;;;-10.11;73.00;97798.72;4898910;29;20055;-67
2021/12/26 00:40:34;;;;;;;2.88;1.30;;;;;;;-10.04;72.62;97797.47;4899289;29;20052;-68
2021/12/26 00:43:01;;;;;;;3.90;1.67;;;;;;;-9.95;72.38;97798.69;4898459;29;20476;-68
2021/12/26 00:45:28;;;;;;;2.42;1.27;;;;;;;-9.88;72.59;97791.28;4899582;29;20064;-68
2021/12/26 00:47:55;;;;;;;3.33;1.58;;;;;;;-9.82;72.43;97782.22;4898250;29;20072;-67
2021/12/26 00:50:27;;;;;;;3.95;1.48;;;;;;;-9.75;72.79;97784.72;4899212;29;20532;-66
2021/12/26 00:52:54;;;;;;;5.15;1.52;;;;;;;-9.71;72.69;97775.91;4898583;29;20059;-67
2021/12/26 00:55:21;;;;;;;3.78;1.50;;;;;;;-9.68;72.71;97782.69;4898895;29;20444;-67
2021/12/26 00:57:48;;;;;;;4.35;1.85;;;;;;;-9.68;72.38;97777.31;4898229;29;20144;-66
2021/12/26 01:00:19;;;;;;;3.72;2.08;;;;;;;-9.62;73.06;97782.50;4899181;29;20067;-67
2021/12/26 01:02:46;;;;;;;3.63;1.90;;;;;;;-9.62;72.58;97782.50;4898377;29;20060;-66
2021/12/26 01:05:14;;;;;;;6.15;1.75;;;;;;;-9.63;72.55;97775.50;4899188;29;20052;-66
2021/12/26 01:10:18;;;;;;;3.83;1.65;;;;;;;-9.62;72.64;97762.88;4898752;29;20256;-66
2021/12/26 01:12:46;;;;;;;5.95;1.45;;;;;;;-9.60;73.56;97761.56;4898521;29;20059;-66
2021/12/26 01:15:13;;;;;;;5.28;1.80;;;;;;;-9.57;73.38;97762.91;4898331;29;20059;-67
2021/12/26 01:17:43;;;;;;;3.42;2.03;;;;;;;-9.52;73.09;97756.78;4897917;29;20048;-66
2021/12/26 01:20:19;;;;;;;4.30;1.73;;;;;;;-9.49;73.04;97753.59;4898608;29;20102;-67
2021/12/26 01:22:45;;;;;;;5.47;2.00;;;;;;;-9.49;72.85;97743.66;4897690;29;20469;-67
2021/12/26 01:25:13;;;;;;;5.53;1.90;;;;;;;-9.53;73.15;97742.53;4898488;29;20531;-67
2021/12/26 01:27:40;;;;;;;3.95;1.73;;;;;;;-9.61;72.77;97729.50;4897578;29;20092;-66
2021/12/26 01:30:08;;;;;;;3.53;1.70;;;;;;;-9.66;72.94;97732.94;4898616;29;20137;-67
2021/12/26 01:32:35;;;;;;;12.45;2.47;;;;;;;-9.69;73.30;97721.88;4897800;29;20148;-66
2021/12/26 01:35:02;;;;;;;13.20;2.00;;;;;;;-9.72;73.09;97731.25;4894914;29;20052;-67
2021/12/26 01:37:29;;;;;;;3.25;1.70;;;;;;;-9.72;73.27;97728.56;4897912;29;20508;-67
2021/12/26 01:39:56;;;;;;;3.78;1.75;;;;;;;-9.68;73.20;97726.19;4898337;29;20068;-66
2021/12/26 01:42:23;;;;;;;2.10;1.25;;;;;;;-9.66;73.24;97738.34;4896583;29;20115;-66
2021/12/26 01:44:50;;;;;;;2.85;1.42;;;;;;;-9.59;72.96;97738.97;4898052;29;20465;-66
2021/12/26 01:47:17;;;;;;;3.15;1.45;;;;;;;-9.51;72.74;97739.59;4897744;29;20084;-66
2021/12/26 01:49:44;;;;;;;4.28;1.92;;;;;;;-9.45;73.34;97734.03;4897820;29;20048;-67
2021/12/26 01:52:11;;;;;;;2.13;1.50;;;;;;;-9.36;73.41;97745.97;4898373;29;20055;-67
2021/12/26 01:54:49;;;;;;;2.90;1.50;;;;;;;-9.31;72.85;97735.28;4897389;29;20055;-67
2021/12/26 01:57:18;;;;;;;2.97;1.50;;;;;;;-9.24;73.35;97729.72;4897846;29;20056;-67
2021/12/26 01:59:47;;;;;;;1.92;1.35;;;;;;;-9.24;73.24;97735.09;4897192;29;20060;-67
2021/12/26 02:02:14;;;;;;;4.30;1.95;;;;;;;-9.26;73.23;97721.06;4897581;29;20057;-66
2021/12/26 02:04:43;;;;;;;3.80;1.80;;;;;;;-9.23;73.36;97715.19;4897220;29;20063;-67
2021/12/26 02:07:12;;;;;;;13.00;1.83;;;;;;;-9.19;73.45;97722.50;4897471;29;20139;-66
2021/12/26 02:09:39;;;;;;;3.50;1.45;;;;;;;-9.18;73.30;97726.03;4897012;29;20416;-67
2021/12/26 02:12:08;;;;;;;3.85;1.67;;;;;;;-9.18;73.57;97717.94;4897649;29;20066;-67
2021/12/26 02:14:35;;;;;;;4.95;2.13;;;;;;;-9.15;73.23;97714.75;4897238;29;20079;-67
2021/12/26 02:17:02;;;;;;;3.50;1.83;;;;;;;-9.12;73.53;97701.56;4897252;29;20052;-67
2021/12/26 02:19:29;;;;;;;4.88;1.80;;;;;;;-9.15;73.87;97712.06;4897196;29;20060;-66
2021/12/26 02:22:11;;;;;;;2.90;1.55;;;;;;;-9.16;73.08;97715.78;4897379;29;20060;-66
2021/12/26 02:27:33;;;;;;;4.65;2.08;;;;;;;-9.19;73.69;97706.34;4897169;29;20508;-67
2021/12/26 02:30:08;;;;;;;4.38;2.33;;;;;;;-9.17;73.58;97714.19;4897052;29;20072;-67
2021/12/26 02:32:37;;;;;;;4.43;1.48;;;;;;;-9.21;73.79;97708.47;4896948;29;20083;-67
2021/12/26 02:35:05;;;;;;;5.25;1.85;;;;;;;-9.18;73.64;97712.56;4897768;29;20050;-67
2021/12/26 02:37:32;;;;;;;6.78;1.20;;;;;;;-9.18;73.78;97709.88;4897200;29;20527;-67
2021/12/26 02:39:59;;;;;;;7.35;1.73;;;;;;;-9.17;73.89;97719.56;4896871;29;20045;-67
2021/12/26 02:42:26;;;;;;;5.00;1.70;;;;;;;-9.23;73.24;97705.25;4896903;29;20083;-66
2021/12/26 02:44:54;;;;;;;3.72;1.70;;;;;;;-9.23;73.48;97701.72;4897031;29;20056;-67
2021/12/26 02:47:39;;;;;;;3.78;1.92;;;;;;;-9.23;74.16;97705.25;4895517;29;20409;-67
2021/12/26 02:50:11;;;;;;;3.53;1.73;;;;;;;-9.24;74.29;97700.09;4897065;29;20060;-67
2021/12/26 02:52:38;;;;;;;2.15;1.35;;;;;;;-9.26;74.02;97704.94;4897381;29;20149;-61
2021/12/26 02:55:06;;;;;;;2.05;1.33;;;;;;;-9.25;74.37;97717.31;4895229;29;20151;-63
2021/12/26 02:57:34;;;;;;;3.47;1.70;;;;;;;-9.30;74.08;97703.81;4896505;29;20052;-62
2021/12/26 03:00:14;;;;;;;1.60;0.82;;;;;;;-9.29;74.71;97700.88;4896408;29;20060;-63
2021/12/26 03:02:43;;;;;;;3.35;1.90;;;;;;;-9.29;74.69;97705.44;4876994;29;20060;-63
2021/12/26 03:05:11;;;;;;;4.25;2.03;;;;;;;-9.30;74.02;97693.03;4895732;29;20402;-61
2021/12/26 03:07:38;;;;;;;3.90;1.98;;;;;;;-9.26;74.39;97688.78;4896717;29;20517;-62
2021/12/26 03:10:11;;;;;;;3.67;1.88;;;;;;;-9.23;74.20;97689.09;4895750;29;20405;-62
2021/12/26 03:12:41;;;;;;;3.35;1.65;;;;;;;-9.22;74.46;97681.81;4897274;29;20049;-62
2021/12/26 03:15:10;;;;;;;3.60;1.60;;;;;;;-9.19;74.09;97682.13;4896529;29;20389;-62
2021/12/26 03:17:38;;;;;;;3.05;1.70;;;;;;;-9.23;74.48;97672.13;4892375;29;20061;-62
2021/12/26 03:20:15;;;;;;;3.05;1.27;;;;;;;-9.24;74.08;97670.50;4896129;29;20057;-63
2021/12/26 03:22:44;;;;;;;4.97;2.13;;;;;;;-9.25;74.13;97676.94;4896591;29;20419;-63
2021/12/26 03:25:19;;;;;;;1.73;1.08;;;;;;;-9.24;74.40;97682.06;4896500;29;20045;-61
2021/12/26 03:27:47;;;;;;;4.93;1.67;;;;;;;-9.25;74.46;97668.84;4896260;29;20548;-63
2021/12/26 03:30:19;;;;;;;4.13;1.77;;;;;;;-9.23;75.02;97672.13;4896717;29;20052;-64
2021/12/26 03:32:51;;;;;;;3.50;1.83;;;;;;;-9.25;74.51;97663.47;4895389;29;20108;-63
2021/12/26 03:35:20;;;;;;;3.05;1.45;;;;;;;-9.24;74.78;97670.50;4896628;29;20059;-61
2021/12/26 03:37:47;;;;;;;3.85;1.67;;;;;;;-9.22;74.77;97671.88;4896318;29;20063;-63
2021/12/26 03:40:14;;;;;;;3.58;1.70;;;;;;;-9.19;74.54;97662.47;4894977;29;20057;-61
2021/12/26 03:42:41;;;;;;;3.95;2.00;;;;;;;-9.16;74.32;97656.56;4896540;29;20044;-62
2021/12/26 03:45:24;;;;;;;3.42;1.95;;;;;;;-9.08;74.46;97664.19;4895334;29;20060;-61
2021/12/26 03:47:51;;;;;;;4.38;1.73;;;;;;;-9.02;74.12;97663.19;4894674;29;20582;-61
2021/12/26 03:50:20;;;;;;;13.05;2.05;;;;;;;-8.97;74.46;97657.84;4896660;29;20088;-61
2021/12/26 03:52:50;;;;;;;2.20;1.38;;;;;;;-9.00;75.01;97677.22;4896484;29;20060;-61
2021/12/26 03:55:18;;;;;;;4.60;2.15;;;;;;;-9.03;74.79;97656.19;4896417;29;20060;-61
2021/12/26 03:57:46;;;;;;;2.88;1.50;;;;;;;-9.00;75.04;97661.06;4896415;29;20531;-62
2021/12/26 04:00:14;;;;;;;3.08;1.52;;;;;;;-8.96;75.05;97668.38;4896762;29;20049;-62
2021/12/26 04:02:43;;;;;;;3.40;1.83;;;;;;;-8.90;74.93;97659.28;4895578;29;20633;-61
2021/12/26 04:05:12;;;;;;;2.97;1.63;;;;;;;-8.83;74.51;97667.16;4896253;29;20053;-61
2021/12/26 04:07:39;;;;;;;3.47;1.80;;;;;;;-8.74;74.87;97671.81;4896230;29;20516;-62
2021/12/26 04:10:08;;;;;;;3.78;1.50;;;;;;;-8.65;74.44;97666.78;4897880;29;20049;-60
2021/12/26 04:12:37;;;;;;;2.83;1.55;;;;;;;-8.59;74.19;97692.72;4899944;29;20059;-67
2021/12/26 04:15:10;;;;;;;2.65;1.45;;;;;;;-8.53;75.12;97656.66;4898306;29;20052;-66
2021/12/26 04:17:38;;;;;;;3.60;2.03;;;;;;;-8.52;74.45;97652.88;4891868;29;20139;-67
2021/12/26 04:20:07;;;;;;;9.57;1.60;;;;;;;-8.48;74.83;97659.38;4899016;29;20059;-67
2021/12/26 04:22:34;;;;;;;3.95;1.70;;;;;;;-8.44;74.13;97650.50;4898359;29;20067;-67
2021/12/26 04:25:01;;;;;;;4.28;2.00;;;;;;;-8.41;74.16;97649.97;4898836;29;20053;-65
2021/12/26 04:27:28;;;;;;;2.92;1.75;;;;;;;-8.34;74.35;97656.00;4899510;29;20075;-66
2021/12/26 04:29:55;;;;;;;3.53;1.85;;;;;;;-8.28;75.00;97662.22;4899104;29;20470;-67
2021/12/26 04:32:22;;;;;;;4.28;2.40;;;;;;;-8.26;75.12;97660.09;4899574;29;20056;-66
2021/12/26 04:34:49;;;;;;;3.80;1.83;;;;;;;-8.25;75.12;97654.44;4898979;29;20080;-67
2021/12/26 04:37:16;;;;;;;4.07;1.77;;;;;;;-8.22;74.97;97653.88;4899281;29;20198;-66
2021/12/26 04:39:43;;;;;;;3.20;1.67;;;;;;;-8.16;74.26;97657.41;4899053;29;20044;-67
2021/12/26 04:42:10;;;;;;;4.15;2.00;;;;;;;-8.12;74.94;97643.16;4899233;29;20056;-67
2021/12/26 04:44:38;;;;;;;5.45;1.83;;;;;;;-8.08;74.16;97651.56;4899393;29;20056;-67
2021/12/26 04:47:05;;;;;;;3.53;2.00;;;;;;;-8.08;74.86;97659.63;4897676;29;20060;-66
2021/12/26 04:49:32;;;;;;;3.30;1.50;;;;;;;-8.06;74.08;97654.78;4899278;29;20156;-67
2021/12/26 04:51:59;;;;;;;5.30;2.38;;;;;;;-8.05;75.08;97648.34;4898593;29;20526;-66
2021/12/26 04:54:26;;;;;;;4.90;1.90;;;;;;;-8.01;74.31;97654.81;4899120;29;20056;-66
2021/12/26 04:56:53;;;;;;;3.70;1.80;;;;;;;-7.97;75.25;97655.91;4898806;29;20390;-67
2021/12/26 04:59:20;;;;;;;4.28;2.08;;;;;;;-7.94;74.02;97650.81;4898965;29;20058;-65
2021/12/26 05:01:47;;;;;;;2.42;1.27;;;;;;;-7.96;74.57;97642.16;4898473;29;20078;-68
2021/12/26 05:04:13;;;;;;;3.45;1.58;;;;;;;-7.97;74.30;97655.91;4898685;29;20060;-67
2021/12/26 05:06:42;;;;;;;4.97;1.65;;;;;;;-7.97;74.98;97656.72;4898424;29;20139;-67
2021/12/26 05:09:09;;;;;;;4.25;1.70;;;;;;;-8.03;75.39;97646.16;4899039;29;20072;-67
2021/12/26 05:11:37;;;;;;;3.55;1.88;;;;;;;-7.93;74.86;97673.22;4898384;29;20062;-66
2021/12/26 05:14:04;;;;;;;5.78;1.60;;;;;;;-7.89;75.06;97668.91;4896040;29;20060;-66
2021/12/26 05:16:32;;;;;;;3.88;1.98;;;;;;;-7.83;74.37;97667.88;4896994;29;20056;-66
2021/12/26 05:18:59;;;;;;;3.50;1.70;;;;;;;-7.78;73.70;97671.41;4898402;29;20413;-66
2021/12/26 05:21:26;;;;;;;2.70;1.40;;;;;;;-7.74;73.87;97669.00;4898212;29;20500;-66
2021/12/26 05:23:53;;;;;;;3.95;2.28;;;;;;;-7.71;74.63;97672.00;4898339;29;20405;-67
2021/12/26 05:26:20;;;;;;;5.75;2.25;;;;;;;-7.70;74.90;97668.22;4898427;29;20052;-67
2021/12/26 05:28:46;;;;;;;3.90;1.70;;;;;;;-7.65;73.93;97678.22;4897704;29;20052;-67
2021/12/26 05:31:14;;;;;;;3.95;2.10;;;;;;;-7.61;74.86;97666.63;4898063;29;20431;-66
2021/12/26 05:33:40;;;;;;;4.55;1.95;;;;;;;-7.56;74.87;97665.84;4897954;29;20392;-66
2021/12/26 05:36:07;;;;;;;5.05;1.85;;;;;;;-7.51;74.39;97654.25;4898363;29;20063;-66
2021/12/26 05:38:35;;;;;;;3.30;1.48;;;;;;;-7.53;73.85;97657.22;4897660;29;20070;-66
2021/12/26 05:41:02;;;;;;;1.73;1.42;;;;;;;-7.50;74.10;97651.31;4898240;29;20408;-66
2021/12/26 05:43:28;;;;;;;5.28;2.22;;;;;;;-7.49;74.71;97652.94;4897422;29;20112;-66
2021/12/26 05:45:55;;;;;;;2.03;1.27;;;;;;;-7.49;74.33;97663.75;4898159;29;20139;-67
2021/12/26 05:48:22;;;;;;;4.10;1.70;;;;;;;-7.49;74.91;97661.03;4897385;29;20064;-65
2021/12/26 05:50:52;;;;;;;3.00;1.80;;;;;;;-7.48;74.35;97643.75;4897970;29;20409;-63
2021/12/26 05:53:19;;;;;;;4.57;1.60;;;;;;;-7.49;73.84;97647.53;4897700;29;20103;-63
2021/12/26 05:55:46;;;;;;;3.38;1.55;;;;;;;-7.45;74.72;97651.34;4897840;29;20052;-62
2021/12/26 05:58:13;;;;;;;3.97;2.20;;;;;;;-7.42;73.65;97653.50;4896752;29;20055;-62
2021/12/26 06:00:40;;;;;;;7.13;2.65;;;;;;;-7.41;73.58;97655.13;4897662;29;20056;-62
2021/12/26 06:03:07;;;;;;;4.75;2.00;;;;;;;-7.39;75.06;97652.16;4897600;29;20056;-62
2021/12/26 06:05:34;;;;;;;4.32;1.98;;;;;;;-7.42;75.54;97644.56;4897434;29;20071;-62
2021/12/26 06:08:00;;;;;;;3.78;2.10;;;;;;;-7.42;74.27;97648.09;4897644;29;20060;-63
2021/12/26 06:10:27;;;;;;;13.23;2.67;;;;;;;-7.44;75.46;97644.84;4897564;29;20057;-62
2021/12/26 06:12:54;;;;;;;8.05;2.60;;;;;;;-7.40;75.78;97650.53;4897439;29;20049;-63
2021/12/26 06:15:21;;;;;;;2.80;2.03;;;;;;;-7.41;75.10;97644.31;4896904;29;20548;-65
2021/12/26 06:17:48;;;;;;;3.40;2.03;;;;;;;-7.43;74.98;97632.16;4896245;29;20100;-62
2021/12/26 06:20:15;;;;;;;10.90;2.45;;;;;;;-7.45;75.24;97632.44;4894710;29;20412;-61
2021/12/26 06:22:46;;;;;;;4.25;1.80;;;;;;;-7.48;74.89;97638.34;4894212;29;20064;-62
2021/12/26 06:25:15;;;;;;;4.65;2.08;;;;;;;-7.51;75.07;97643.47;4896899;29;20052;-63
2021/12/26 06:27:42;;;;;;;3.13;1.90;;;;;;;-7.52;74.19;97637.28;4894291;29;20108;-62
2021/12/26 06:30:11;;;;;;;9.00;2.03;;;;;;;-7.49;75.22;97633.22;4897138;29;20523;-62
2021/12/26 06:32:38;;;;;;;7.18;2.58;;;;;;;-7.49;74.26;97619.72;4896265;29;20090;-61
2021/12/26 06:35:08;;;;;;;5.18;2.15;;;;;;;-7.48;74.91;97627.56;4896969;29;20056;-63
2021/12/26 06:37:36;;;;;;;5.18;2.05;;;;;;;-7.46;74.07;97630.81;4896908;29;20049;-61
2021/12/26 06:40:04;;;;;;;8.57;2.85;;;;;;;-7.46;73.92;97630.81;4897159;29;20049;-62
2021/12/26 06:42:33;;;;;;;5.18;2.25;;;;;;;-7.43;73.73;97645.66;4896956;29;20060;-63
2021/12/26 06:44:59;;;;;;;3.90;1.92;;;;;;;-7.41;73.85;97638.91;4897106;29;20078;-63
2021/12/26 06:47:28;;;;;;;3.90;1.98;;;;;;;-7.41;73.71;97638.91;4894934;29;20095;-63
2021/12/26 06:49:55;;;;;;;4.22;2.28;;;;;;;-7.41;74.00;97628.13;4896876;29;20530;-63
2021/12/26 06:52:22;;;;;;;5.75;2.40;;;;;;;-7.41;74.30;97640.81;4895157;29;20084;-63
2021/12/26 06:54:49;;;;;;;5.20;2.47;;;;;;;-7.41;74.33;97635.41;4897026;29;20416;-61
2021/12/26 06:57:16;;;;;;;4.97;2.28;;;;;;;-7.40;75.02;97628.94;4896552;29;20052;-62
2021/12/26 06:59:43;;;;;;;4.93;2.17;;;;;;;-7.37;74.96;97631.94;4897360;29;20048;-63
2021/12/26 07:02:10;;;;;;;3.42;1.48;;;;;;;-7.33;74.85;97635.72;4896703;29;20059;-63
2021/12/26 07:04:37;;;;;;;5.47;2.22;;;;;;;-7.30;74.43;97628.97;4896649;29;20084;-62
2021/12/26 07:07:04;;;;;;;4.60;1.77;;;;;;;-7.28;75.17;97649.25;4896615;29;20056;-62
2021/12/26 07:09:31;;;;;;;4.03;2.28;;;;;;;-7.31;73.91;97641.66;4897078;29;20051;-62
2021/12/26 07:11:58;;;;;;;4.43;2.20;;;;;;;-7.30;74.77;97632.47;4896490;29;20066;-62
2021/12/26 07:14:25;;;;;;;4.05;1.92;;;;;;;-7.29;73.90;97615.19;4894964;29;20115;-62
2021/12/26 07:16:52;;;;;;;4.35;1.90;;;;;;;-7.28;75.14;97627.63;4896750;29;20053;-59
2021/12/26 07:19:19;;;;;;;3.67;1.80;;;;;;;-7.27;73.92;97626.56;4893057;29;20056;-58
2021/12/26 07:21:46;;;;;;;2.85;1.70;;;;;;;-7.28;73.96;97611.44;4896791;29;20057;-60
2021/12/26 07:24:12;;;;;;;3.33;2.03;;;;;;;-7.29;73.97;97620.59;4896210;29;20071;-58
2021/12/26 07:26:40;;;;;;;8.80;2.35;;;;;;;-7.32;74.67;97626.53;4892693;29;20052;-66
2021/12/26 07:29:07;;;;;;;4.13;1.90;;;;;;;-7.29;74.86;97623.28;4894893;29;20052;-67
2021/12/26 07:31:34;;;;;;;3.28;1.77;;;;;;;-7.29;74.14;97617.88;4896950;29;20428;-67
2021/12/26 07:34:02;;;;;;;4.43;1.83;;;;;;;-7.27;75.27;97618.44;4896173;29;20564;-67
2021/12/26 07:36:28;;;;;;;4.78;2.17;;;;;;;-7.24;74.70;97609.81;4895209;29;20052;-66
2021/12/26 07:38:55;;;;;;;3.47;1.92;;;;;;;-7.17;74.01;97613.06;4896594;29;20441;-66
2021/12/26 07:41:22;;;;;;;3.88;1.80;;;;;;;-7.12;75.04;97614.97;4896607;29;20056;-66
2021/12/26 07:43:49;;;;;;;46.63;14.43;;;;;;;-7.12;74.67;97626.59;4897599;29;20135;-67
2021/12/26 07:46:16;;;;;;;4.53;2.15;;;;;;;-7.09;74.95;97609.03;4896802;29;20057;-65
2021/12/26 07:48:44;;;;;;;3.83;1.83;;;;;;;-7.02;75.09;97613.09;4881272;29;20068;-67
2021/12/26 07:51:11;;;;;;;5.40;2.72;;;;;;;-6.95;74.63;97613.66;4881597;29;20059;-67
2021/12/26 07:53:38;;;;;;;4.68;2.30;;;;;;;-6.92;75.01;97605.00;4879897;29;20061;-66
2021/12/26 07:56:05;;;;;;;6.35;2.47;;;;;;;-6.80;73.61;97610.16;4880963;29;20457;-66
2021/12/26 07:58:32;;;;;;;4.13;2.20;;;;;;;-6.71;73.65;97606.66;4881058;29;20060;-66
2021/12/26 08:00:59;;;;;;;5.75;2.80;;;;;;;-6.65;74.06;97610.97;4880691;29;20041;-67
2021/12/26 08:03:26;;;;;;;3.90;2.03;;;;;;;-6.63;73.62;97600.69;4880962;29;20053;-67
2021/12/26 08:05:53;;;;;;;4.60;2.38;;;;;;;-6.57;73.75;97601.50;4881166;29;20063;-66
2021/12/26 08:08:20;;;;;;;3.90;2.03;;;;;;;-6.57;74.28;97596.91;4880961;29;20045;-66
2021/12/26 08:10:47;;;;;;;6.07;2.30;;;;;;;-6.51;74.02;97600.44;4879560;29;20061;-67
2021/12/26 08:13:15;;;;;;;3.67;2.25;;;;;;;-6.50;73.56;97592.06;4881018;29;20537;-67
2021/12/26 08:15:42;;;;;;;5.93;2.10;;;;;;;-6.52;74.30;97599.63;4880629;29;20057;-66
2021/12/26 08:18:09;;;;;;;5.55;2.15;;;;;;;-6.56;74.27;97593.13;4880826;29;20458;-65
2021/12/26 08:20:37;;;;;;;6.82;2.10;;;;;;;-6.57;74.58;97596.91;4879134;29;20143;-66
2021/12/26 08:23:05;;;;;;;7.97;2.67;;;;;;;-6.56;74.10;97590.44;4877295;29;20057;-62
2021/12/26 08:25:32;;;;;;;6.13;2.17;;;;;;;-6.57;74.40;97574.47;4895202;29;20445;-62
2021/12/26 08:27:59;;;;;;;34.75;9.65;;;;;;;-6.56;74.05;97582.31;4880710;29;20059;-62
2021/12/26 08:30:27;;;;;;;10.55;2.50;;;;;;;-6.58;73.14;97576.38;4879176;29;20136;-61
2021/12/26 08:32:58;;;;;;;4.32;2.50;;;;;;;-6.58;73.85;97579.06;4880254;29;20061;-62
2021/12/26 08:35:25;;;;;;;6.63;2.10;;;;;;;-6.53;74.24;97570.16;4881092;29;20413;-62
2021/12/26 08:37:52;;;;;;;4.82;2.10;;;;;;;-6.53;73.88;97562.84;4880300;29;20064;-63
2021/12/26 08:40:19;;;;;;;5.00;2.25;;;;;;;-6.52;73.00;97572.56;4880509;29;20049;-60
2021/12/26 08:42:46;;;;;;;7.38;2.28;;;;;;;-6.52;73.62;97572.56;4880108;29;20085;-62
2021/12/26 08:45:13;;;;;;;5.93;2.50;;;;;;;-6.51;73.66;97568.78;4880325;29;20152;-60
2021/12/26 08:47:40;;;;;;;4.80;2.35;;;;;;;-6.50;73.76;97567.72;4890699;29;20083;-62
2021/12/26 08:50:09;;;;;;;3.30;1.70;;;;;;;-6.46;73.36;97560.66;4898978;29;20059;-63
2021/12/26 08:52:37;;;;;;;4.72;2.20;;;;;;;-6.44;73.06;97560.41;4898464;29;20138;-61
2021/12/26 08:55:05;;;;;;;7.05;2.72;;;;;;;-6.36;73.09;97552.56;4898560;29;20056;-62
2021/12/26 08:57:32;;;;;;;3.35;2.08;;;;;;;-6.30;73.33;97553.34;4898489;29;20067;-62
2021/12/26 09:00:00;;;;;;;5.93;2.42;;;;;;;-6.27;72.91;97550.91;4898946;29;20140;-59
2021/12/26 09:02:28;;;;;;;3.33;1.80;;;;;;;-6.24;72.74;97549.56;4898752;29;20052;-60
2021/12/26 09:04:55;;;;;;;38.95;12.48;;;;;;;-6.21;72.53;97549.00;4898782;29;20060;-62
2021/12/26 09:07:22;;;;;;;10.52;3.55;;;;;;;-6.17;73.46;97553.59;4898142;29;20058;-60
2021/12/26 09:09:49;;;;;;;4.28;2.35;;;;;;;-6.10;72.59;97550.59;4893942;29;20508;-62
2021/12/26 09:12:16;;;;;;;6.07;2.38;;;;;;;-6.11;72.69;97557.91;4898205;29;20512;-62
2021/12/26 09:14:44;;;;;;;8.50;2.38;;;;;;;-6.11;72.87;97541.66;4898379;29;20056;-63
2021/12/26 09:17:11;;;;;;;6.85;2.30;;;;;;;-6.10;72.80;97542.50;4898782;29;20059;-62
2021/12/26 09:19:38;;;;;;;7.25;2.80;;;;;;;-6.13;72.72;97533.00;4898530;29;20070;-62
2021/12/26 09:22:09;;;;;;;5.13;2.20;;;;;;;-6.08;72.23;97533.00;4898689;29;20040;-62
2021/12/26 09:24:38;;;;;;;2.83;1.67;;;;;;;-6.04;72.71;97531.34;4897947;29;20076;-62
2021/12/26 09:27:05;;;;;;;4.60;2.42;;;;;;;-6.01;72.53;97528.09;4898613;29;20484;-62
2021/12/26 09:29:32;;;;;;;5.82;2.83;;;;;;;-5.96;73.00;97524.56;4897877;29;20052;-62
2021/12/26 09:32:02;;;;;;;5.13;2.30;;;;;;;-5.94;72.18;97525.94;4898695;29;20135;-64
2021/12/26 09:34:32;;;;;;;4.25;2.30;;;;;;;-5.96;72.81;97530.78;4898002;29;20508;-63
2021/12/26 09:37:00;;;;;;;6.53;2.42;;;;;;;-5.96;72.57;97517.25;4898096;29;20067;-62
2021/12/26 09:39:27;;;;;;;6.60;2.50;;;;;;;-5.95;72.47;97524.28;4898044;29;20049;-63
2021/12/26 09:41:54;;;;;;;4.80;2.70;;;;;;;-5.96;72.34;97516.44;4898503;29;20048;-64
2021/12/26 09:44:22;;;;;;;7.15;2.90;;;;;;;-5.91;72.35;97529.97;4897556;29;20518;-65
2021/12/26 09:46:49;;;;;;;15.65;6.95;;;;;;;-5.95;72.10;97518.09;4897804;29;20075;-63
2021/12/26 09:49:17;;;;;;;4.25;2.53;;;;;;;-5.94;72.25;97511.56;4895841;29;20148;-62
2021/12/26 09:51:44;;;;;;;8.95;2.60;;;;;;;-5.94;72.13;97515.09;4897657;29;20057;-62
2021/12/26 09:54:11;;;;;;;5.88;2.60;;;;;;;-5.94;71.99;97504.28;4897952;29;20134;-63
2021/12/26 09:56:39;;;;;;;6.60;2.55;;;;;;;-5.94;72.04;97512.38;4894990;29;20071;-61
2021/12/26 09:59:13;;;;;;;6.13;2.05;;;;;;;-5.92;71.90;97495.88;4897339;29;20098;-61
2021/12/26 10:01:42;;;;;;;4.90;2.40;;;;;;;-5.88;71.73;97488.81;4894762;29;20075;-62
2021/12/26 10:04:20;;;;;;;6.93;2.53;;;;;;;-5.85;71.96;97490.97;4897473;29;20053;-61
2021/12/26 10:06:50;;;;;;;4.35;2.08;;;;;;;-5.80;71.67;97489.00;4895488;29;20058;-62
2021/12/26 10:09:19;;;;;;;4.47;2.05;;;;;;;-5.84;71.63;97487.97;4897433;29;20051;-61
2021/12/26 10:11:49;;;;;;;3.17;2.03;;;;;;;-5.91;71.67;97511.03;4897499;29;20056;-63
2021/12/26 10:14:20;;;;;;;3.90;1.83;;;;;;;-6.03;72.14;97500.53;4895006;29;20445;-62
2021/12/26 10:16:51;;;;;;;6.43;2.00;;;;;;;-6.03;72.74;97494.28;4897036;29;20063;-62
2021/12/26 10:19:19;;;;;;;7.40;1.95;;;;;;;-6.02;73.04;97491.31;4897057;29;20056;-60
2021/12/26 10:21:55;;;;;;;8.38;2.30;;;;;;;-5.99;72.71;97496.16;4896125;29;20115;-58
2021/12/26 10:24:32;;;;;;;5.00;2.83;;;;;;;-6.00;72.56;97483.72;4895661;29;20423;-57
2021/12/26 10:27:23;;;;;;;5.60;2.15;;;;;;;-6.01;72.48;97471.25;4897603;29;20095;-60
2021/12/26 10:30:15;;;;;;;12.23;2.78;;;;;;;-6.01;72.46;97465.06;4896660;29;20052;-58
2021/12/26 10:32:42;;;;;;;6.35;2.45;;;;;;;-5.98;72.85;97465.31;4896889;29;20227;-59
2021/12/26 10:35:16;;;;;;;4.90;2.17;;;;;;;-5.91;72.68;97471.25;4897398;29;20059;-58
2021/12/26 10:37:46;;;;;;;4.50;2.45;;;;;;;-5.89;72.54;97469.03;4896763;29;20056;-53
2021/12/26 10:40:16;;;;;;;6.18;2.60;;;;;;;-5.92;72.36;97458.78;4897336;29;20500;-62
2021/12/26 10:42:49;;;;;;;4.88;2.22;;;;;;;-5.95;72.25;97453.13;4896482;29;20131;-59
2021/12/26 10:45:22;;;;;;;5.97;2.85;;;;;;;-5.90;72.31;97461.19;4897486;29;20076;-58
2021/12/26 10:47:52;;;;;;;6.18;2.17;;;;;;;-5.88;71.89;97453.63;4896584;29;20148;-61
2021/12/26 10:50:24;;;;;;;6.90;2.40;;;;;;;-5.87;72.14;97437.09;4897142;29;20139;-56
2021/12/26 10:52:58;;;;;;;14.48;7.88;;;;;;;-5.84;72.27;97438.44;4896278;29;20166;-57
2021/12/26 10:55:28;;;;;;;9.32;4.20;;;;;;;-5.81;72.04;97438.66;4896911;29;20159;-63
2021/12/26 10:57:56;;;;;;;13.30;5.13;;;;;;;-5.87;71.67;97434.41;4896235;29;20072;-62
2021/12/26 11:00:29;;;;;;;5.05;2.35;;;;;;;-5.87;72.12;97434.41;4896665;29;20087;-63
2021/12/26 11:03:12;;;;;;;6.32;3.65;;;;;;;-5.90;72.28;97429.53;4893633;29;20056;-61
2021/12/26 11:05:43;;;;;;;6.13;2.47;;;;;;;-5.94;72.54;97425.78;4896815;29;20052;-60
2021/12/26 11:08:16;;;;;;;5.40;2.35;;;;;;;-5.91;72.61;97427.13;4896275;29;20512;-60
2021/12/26 11:10:45;;;;;;;4.32;2.25;;;;;;;-5.89;72.37;97424.94;4892427;29;20101;-62
2021/12/26 11:13:29;;;;;;;6.20;2.35;;;;;;;-5.85;72.28;97437.66;4895796;29;20143;-62
2021/12/26 11:15:59;;;;;;;3.85;2.33;;;;;;;-5.84;73.09;97428.44;4896485;29;20432;-61
2021/12/26 11:18:27;;;;;;;5.53;2.37;;;;;;;-5.90;72.96;97424.13;4897984;29;20049;-64
2021/12/26 11:21:00;;;;;;;43.30;11.98;;;;;;;-5.90;73.04;97421.44;4901116;29;20048;-61
2021/12/26 11:23:33;;;;;;;6.43;2.95;;;;;;;-5.94;72.70;97425.78;4899753;29;20060;-62
2021/12/26 11:26:09;;;;;;;7.20;3.03;;;;;;;-6.03;72.95;97418.53;4896439;29;20480;-59
2021/12/26 11:28:39;;;;;;;4.72;2.47;;;;;;;-6.06;72.85;97425.31;4900577;29;20056;-61
2021/12/26 11:31:11;;;;;;;6.17;2.37;;;;;;;-6.05;72.94;97421.50;4900241;29;20059;-61
2021/12/26 11:33:39;;;;;;;5.63;1.67;;;;;;;-6.06;72.52;97419.91;4900773;29;20060;-59
2021/12/26 11:36:11;;;;;;;3.47;1.98;;;;;;;-6.04;72.66;97428.53;4900128;29;20056;-63
2021/12/26 11:38:40;;;;;;;7.68;2.58;;;;;;;-6.03;73.01;97408.53;4900187;29;20056;-63
2021/12/26 11:41:34;;;;;;;4.85;2.10;;;;;;;-5.99;73.12;97419.56;4900118;29;20512;-62
2021/12/26 11:44:16;;;;;;;6.90;2.05;;;;;;;-6.08;73.08;97397.72;4891071;29;20436;-62